createdAt,value
2018-05-01T00:01:06.004Z,1.10
2018-05-01T00:03:39.721Z,0.95
2018-05-01T00:06:13.488Z,0.80
2018-05-01T00:08:48.084Z,0.98
2018-05-01T00:11:21.845Z,1.12
2018-05-01T00:13:55.589Z,1.02
2018-05-01T00:16:29.297Z,1.00
2018-05-01T00:19:03.901Z,0.93
2018-05-01T00:21:38.492Z,0.88
2018-05-01T00:24:12.277Z,1.17
2018-05-01T00:26:45.929Z,1.25
2018-05-01T00:29:19.642Z,1.00
2018-05-01T00:31:54.123Z,0.90
2018-05-01T00:34:27.889Z,0.80
2018-05-01T00:37:02.386Z,1.05
2018-05-01T00:39:36.202Z,0.73
2018-05-01T00:42:09.995Z,0.60
2018-05-01T00:44:43.833Z,1.00
2018-05-01T00:47:17.596Z,1.05
2018-05-01T00:49:51.308Z,1.75
2018-05-01T00:52:37.154Z,1.23
2018-05-01T00:55:11.051Z,0.80
2018-05-01T00:57:44.971Z,1.92
2018-05-01T01:00:18.799Z,1.52
2018-05-01T01:02:52.643Z,0.77
2018-05-01T01:05:26.308Z,1.00
2018-05-01T01:08:00.141Z,0.85
2018-05-01T01:10:33.822Z,0.70
2018-05-01T01:13:07.596Z,0.70
2018-05-01T01:15:41.244Z,0.80
2018-05-01T01:18:14.937Z,1.10
2018-05-01T01:20:48.774Z,0.80
2018-05-01T01:23:22.394Z,0.90
2018-05-01T01:25:57.060Z,0.73
2018-05-01T01:28:32.364Z,1.00
2018-05-01T01:31:05.984Z,0.80
2018-05-01T01:33:39.785Z,0.88
2018-05-01T01:36:13.884Z,0.80
2018-05-01T01:38:47.246Z,0.75
2018-05-01T01:41:20.475Z,0.80
2018-05-01T01:43:54.431Z,0.77
2018-05-01T01:46:27.868Z,1.10
2018-05-01T01:49:01.235Z,1.23
2018-05-01T01:51:34.302Z,0.80
2018-05-01T01:54:07.525Z,0.88
2018-05-01T01:56:40.711Z,0.77
2018-05-01T01:59:14.012Z,0.90
2018-05-01T02:01:47.932Z,1.35
2018-05-01T02:04:21.093Z,1.10
2018-05-01T02:06:54.377Z,1.20
2018-05-01T02:09:27.621Z,1.10
2018-05-01T02:12:01.744Z,1.40
2018-05-01T02:14:35.118Z,1.50
2018-05-01T02:17:08.268Z,1.50
2018-05-01T02:19:41.550Z,1.25
2018-05-01T02:22:15.600Z,1.45
2018-05-01T02:24:48.976Z,1.30
2018-05-01T02:27:22.236Z,1.50
2018-05-01T02:29:55.613Z,1.25
2018-05-01T02:32:29.524Z,1.42
2018-05-01T02:35:02.663Z,1.48
2018-05-01T02:37:35.932Z,1.60
2018-05-01T02:40:09.872Z,1.70
2018-05-01T02:42:43.308Z,1.83
2018-05-01T02:45:17.408Z,1.67
2018-05-01T02:47:50.822Z,1.50
2018-05-01T02:50:24.926Z,1.40
2018-05-01T02:52:58.296Z,1.80
2018-05-01T02:55:31.490Z,2.10
2018-05-01T02:58:04.718Z,1.73
2018-05-01T03:00:38.688Z,2.28
2018-05-01T03:03:11.916Z,1.87
2018-05-01T03:05:45.041Z,2.05
2018-05-01T03:08:18.331Z,2.00
2018-05-01T03:10:51.578Z,2.30
2018-05-01T03:13:24.852Z,1.67
2018-05-01T03:15:58.791Z,1.70
2018-05-01T03:18:32.659Z,1.80
2018-05-01T03:21:06.820Z,1.60
2018-05-01T03:23:40.096Z,1.95
2018-05-01T03:26:13.212Z,2.05
2018-05-01T03:28:47.224Z,1.85
2018-05-01T03:31:20.432Z,2.00
2018-05-01T03:33:53.608Z,2.10
2018-05-01T03:36:27.608Z,1.87
2018-05-01T03:39:00.851Z,2.37
2018-05-01T03:41:34.007Z,2.10
2018-05-01T03:44:07.215Z,1.70
2018-05-01T03:46:41.172Z,1.60
2018-05-01T03:49:14.567Z,1.30
2018-05-01T03:51:47.803Z,1.40
2018-05-01T03:54:20.924Z,1.50
2018-05-01T03:56:54.142Z,1.60
2018-05-01T03:59:28.216Z,1.70
2018-05-01T04:02:01.576Z,1.30
2018-05-01T04:04:34.729Z,1.55
2018-05-01T04:07:07.888Z,1.10
2018-05-01T04:09:41.819Z,1.48
2018-05-01T04:12:16.071Z,1.33
2018-05-01T04:14:49.299Z,1.10
2018-05-01T04:17:22.599Z,1.08
2018-05-01T04:19:56.669Z,1.40
2018-05-01T04:22:29.972Z,1.02
2018-05-01T04:25:03.176Z,1.17
2018-05-01T04:27:36.439Z,1.10
2018-05-01T04:30:09.780Z,1.17
2018-05-01T04:32:43.841Z,1.10
2018-05-01T04:35:17.238Z,1.20
2018-05-01T04:37:50.480Z,0.98
2018-05-01T04:40:23.711Z,1.20
2018-05-01T04:42:57.176Z,0.95
2018-05-01T04:45:30.392Z,1.20
2018-05-01T04:48:03.707Z,1.67
2018-05-01T04:50:37.721Z,1.25
2018-05-01T04:53:11.115Z,1.08
2018-05-01T04:55:45.148Z,1.50
2018-05-01T04:58:18.474Z,1.30
2018-05-01T05:00:51.808Z,1.25
2018-05-01T05:03:25.764Z,1.45
2018-05-01T05:05:59.100Z,1.15
2018-05-01T05:08:32.321Z,6.85
2018-05-01T05:11:05.692Z,1.30
2018-05-01T05:13:38.942Z,1.45
2018-05-01T05:16:13.004Z,1.20
2018-05-01T05:18:46.838Z,1.20
2018-05-01T05:21:20.203Z,1.37
2018-05-01T05:23:53.544Z,1.10
2018-05-01T05:26:26.911Z,1.40
2018-05-01T05:29:00.049Z,1.17
2018-05-01T05:31:34.152Z,1.30
2018-05-01T05:34:07.356Z,1.20
2018-05-01T05:36:40.804Z,1.80
2018-05-01T05:39:13.926Z,1.33
2018-05-01T05:41:47.149Z,1.10
2018-05-01T05:44:20.372Z,1.30
2018-05-01T05:46:54.375Z,0.90
2018-05-01T05:49:27.712Z,1.20
2018-05-01T05:52:01.044Z,1.15
2018-05-01T05:54:34.151Z,1.25
2018-05-01T05:57:08.198Z,1.27
2018-05-01T05:59:42.281Z,1.15
2018-05-01T06:02:15.676Z,2.50
2018-05-01T06:04:48.900Z,1.42
2018-05-01T06:07:22.006Z,1.50
2018-05-01T06:09:55.324Z,1.60
2018-05-01T06:12:29.399Z,1.75
2018-05-01T06:15:02.761Z,1.30
2018-05-01T06:17:36.708Z,1.30
2018-05-01T06:20:10.040Z,3.30
2018-05-01T06:22:43.301Z,1.62
2018-05-01T06:25:16.619Z,1.40
2018-05-01T06:27:49.852Z,1.08
2018-05-01T06:30:23.900Z,1.00
2018-05-01T06:32:57.105Z,1.30
2018-05-01T06:35:30.265Z,1.00
2018-05-01T06:38:04.268Z,1.37
2018-05-01T06:40:37.572Z,1.05
2018-05-01T06:43:11.217Z,1.50
2018-05-01T06:45:44.533Z,1.40
2018-05-01T06:48:17.773Z,1.02
2018-05-01T06:50:51.132Z,1.50
2018-05-01T06:53:24.425Z,1.60
2018-05-01T06:55:58.472Z,1.75
2018-05-01T06:58:32.496Z,1.37
2018-05-01T07:01:05.727Z,1.30
2018-05-01T07:03:39.831Z,1.10
2018-05-01T07:06:13.763Z,1.30
2018-05-01T07:08:47.185Z,1.10
2018-05-01T07:11:20.448Z,1.30
2018-05-01T07:13:53.616Z,1.80
2018-05-01T07:16:27.552Z,1.00
2018-05-01T07:19:00.904Z,1.05
2018-05-01T07:21:34.075Z,1.27
2018-05-01T07:24:07.261Z,1.45
2018-05-01T07:26:40.505Z,1.20
2018-05-01T07:29:13.688Z,1.20
2018-05-01T07:31:46.898Z,1.60
2018-05-01T07:34:20.187Z,1.27
2018-05-01T07:36:54.118Z,1.60
2018-05-01T07:39:27.514Z,1.20
2018-05-01T07:42:00.725Z,7.12
2018-05-01T07:44:34.117Z,1.48
2018-05-01T07:47:07.365Z,1.50
2018-05-01T07:49:40.536Z,1.08
2018-05-01T07:52:13.759Z,1.62
2018-05-01T07:54:47.741Z,1.73
2018-05-01T07:57:21.002Z,1.05
2018-05-01T07:59:54.239Z,1.50
2018-05-01T08:02:27.461Z,1.35
2018-05-01T08:05:00.680Z,1.50
2018-05-01T08:07:34.059Z,1.00
2018-05-01T08:10:07.476Z,1.10
2018-05-01T08:12:41.599Z,1.17
2018-05-01T08:15:14.914Z,1.05
2018-05-01T08:17:49.024Z,1.65
2018-05-01T08:20:22.148Z,1.27
2018-05-01T08:22:56.093Z,1.15
2018-05-01T08:25:29.485Z,1.00
2018-05-01T08:28:02.670Z,0.90
2018-05-01T08:30:36.662Z,1.00
2018-05-01T08:33:09.939Z,1.52
2018-05-01T08:35:43.223Z,0.90
2018-05-01T08:38:17.315Z,1.87
2018-05-01T08:40:50.677Z,1.30
2018-05-01T08:43:24.044Z,1.50
2018-05-01T08:45:57.180Z,1.10
2018-05-01T08:48:32.026Z,1.02
2018-05-01T08:51:05.369Z,1.25
2018-05-01T08:53:38.651Z,1.20
2018-05-01T08:56:12.022Z,0.90
2018-05-01T08:58:45.188Z,1.37
2018-05-01T09:01:20.049Z,1.50
2018-05-01T09:03:53.583Z,1.10
2018-05-01T09:06:26.919Z,1.20
2018-05-01T09:09:00.148Z,1.27
2018-05-01T09:11:33.520Z,1.27
2018-05-01T09:14:06.829Z,1.30
2018-05-01T09:16:40.057Z,18.48
2018-05-01T09:19:13.229Z,1.42
2018-05-01T09:21:47.196Z,1.40
2018-05-01T09:24:21.067Z,1.75
2018-05-01T09:26:54.521Z,1.30
2018-05-01T09:29:27.765Z,1.20
2018-05-01T09:32:01.010Z,1.58
2018-05-01T09:34:34.120Z,1.37
2018-05-01T09:37:08.089Z,1.10
2018-05-01T09:39:41.198Z,1.60
2018-05-01T09:42:14.412Z,1.95
2018-05-01T09:44:48.377Z,2.90
2018-05-01T09:47:21.704Z,1.70
2018-05-01T09:49:55.043Z,1.60
2018-05-01T09:52:28.656Z,1.73
2018-05-01T09:55:02.291Z,1.42
2018-05-01T09:57:36.102Z,1.62
2018-05-01T10:00:10.597Z,1.60
2018-05-01T10:02:44.326Z,1.40
2018-05-01T10:05:18.029Z,1.70
2018-05-01T10:07:51.795Z,1.70
2018-05-01T10:10:25.624Z,1.65
2018-05-01T10:12:59.483Z,1.37
2018-05-01T10:15:33.340Z,1.40
2018-05-01T10:18:07.003Z,1.50
2018-05-01T10:20:41.505Z,1.55
2018-05-01T10:23:15.276Z,2.20
2018-05-01T10:25:48.844Z,1.60
2018-05-01T10:28:22.608Z,2.80
2018-05-01T10:30:56.149Z,2.25
2018-05-01T10:33:29.799Z,1.65
2018-05-01T10:36:04.055Z,1.70
2018-05-01T10:38:37.812Z,1.75
2018-05-01T10:41:12.439Z,1.92
2018-05-01T10:43:46.234Z,1.73
2018-05-01T10:46:20.049Z,3.35
2018-05-01T10:48:53.821Z,1.80
2018-05-01T10:51:27.660Z,1.62
2018-05-01T10:54:01.516Z,1.62
2018-05-01T10:56:35.172Z,1.70
2018-05-01T10:59:08.837Z,2.05
2018-05-01T11:01:43.136Z,1.50
2018-05-01T11:04:16.865Z,2.03
2018-05-01T11:06:50.657Z,1.95
2018-05-01T11:09:24.452Z,1.77
2018-05-01T11:11:58.291Z,2.40
2018-05-01T11:14:32.039Z,1.48
2018-05-01T11:17:05.804Z,1.90
2018-05-01T11:19:39.545Z,1.67
2018-05-01T11:22:13.276Z,2.60
2018-05-01T11:24:47.164Z,1.87
2018-05-01T11:27:20.803Z,1.60
2018-05-01T11:29:54.620Z,2.55
2018-05-01T11:32:28.380Z,1.70
2018-05-01T11:35:02.280Z,2.22
2018-05-01T11:37:36.027Z,1.87
2018-05-01T11:40:09.738Z,1.80
2018-05-01T11:42:43.469Z,1.90
2018-05-01T11:45:18.042Z,1.90
2018-05-01T11:47:51.906Z,2.17
2018-05-01T11:50:25.649Z,2.10
2018-05-01T11:52:59.485Z,1.80
2018-05-01T11:55:33.397Z,1.80
2018-05-01T11:58:08.023Z,1.80
2018-05-01T12:00:41.569Z,2.10
2018-05-01T12:03:15.445Z,2.35
2018-05-01T12:05:49.217Z,1.67
2018-05-01T12:08:22.912Z,1.50
2018-05-01T12:10:56.680Z,1.75
2018-05-01T12:13:30.352Z,1.62
2018-05-01T12:16:05.004Z,2.30
2018-05-01T12:18:38.736Z,1.77
2018-05-01T12:21:12.520Z,1.70
2018-05-01T12:23:46.999Z,1.58
2018-05-01T12:26:20.809Z,1.40
2018-05-01T12:28:54.513Z,1.50
2018-05-01T12:31:28.230Z,1.70
2018-05-01T12:34:02.026Z,1.60
2018-05-01T12:36:35.643Z,1.37
2018-05-01T12:39:09.415Z,2.00
2018-05-01T12:41:43.021Z,2.15
2018-05-01T12:44:16.859Z,1.37
2018-05-01T12:46:50.676Z,1.25
2018-05-01T12:49:24.417Z,1.60
2018-05-01T12:51:58.248Z,1.60
2018-05-01T12:54:31.967Z,1.65
2018-05-01T12:57:06.578Z,1.52
2018-05-01T12:59:40.514Z,1.58
2018-05-01T13:02:14.213Z,2.30
2018-05-01T13:04:49.576Z,1.35
2018-05-01T13:07:24.132Z,1.70
2018-05-01T13:09:58.757Z,1.55
2018-05-01T13:12:32.536Z,1.33
2018-05-01T13:15:07.076Z,1.52
2018-05-01T13:17:40.787Z,1.48
2018-05-01T13:20:15.300Z,1.40
2018-05-01T13:22:49.040Z,1.70
2018-05-01T13:25:22.776Z,1.80
2018-05-01T13:27:56.547Z,1.85
2018-05-01T13:30:30.267Z,1.90
2018-05-01T13:33:04.085Z,2.00
2018-05-01T13:35:38.664Z,1.40
2018-05-01T13:38:13.185Z,2.00
2018-05-01T13:40:46.951Z,1.40
2018-05-01T13:43:20.862Z,1.95
2018-05-01T13:45:54.756Z,1.73
2018-05-01T13:48:29.393Z,1.55
2018-05-01T13:51:03.157Z,1.70
2018-05-01T13:53:37.781Z,1.90
2018-05-01T13:56:11.607Z,1.50
2018-05-01T13:58:45.493Z,1.60
2018-05-01T14:01:19.330Z,1.37
2018-05-01T14:03:53.125Z,1.67
2018-05-01T14:06:27.569Z,1.40
2018-05-01T14:09:01.220Z,1.33
2018-05-01T14:11:35.112Z,1.40
2018-05-01T14:14:08.823Z,1.67
2018-05-01T14:16:43.256Z,1.92
2018-05-01T14:19:17.931Z,1.58
2018-05-01T14:21:52.421Z,1.62
2018-05-01T14:24:26.301Z,1.35
2018-05-01T14:27:00.033Z,1.80
2018-05-01T14:29:34.635Z,2.28
2018-05-01T14:32:08.237Z,1.80
2018-05-01T14:34:42.644Z,1.20
2018-05-01T14:37:16.475Z,1.40
2018-05-01T14:39:50.218Z,1.58
2018-05-01T14:42:24.115Z,1.45
2018-05-01T14:44:58.729Z,1.33
2018-05-01T14:47:33.295Z,1.35
2018-05-01T14:50:07.091Z,1.80
2018-05-01T14:52:41.640Z,1.25
2018-05-01T14:55:15.391Z,1.67
2018-05-01T14:57:49.184Z,1.33
2018-05-01T15:00:23.044Z,1.60
2018-05-01T15:03:05.385Z,1.67
2018-05-01T15:05:39.104Z,1.80
2018-05-01T15:08:12.921Z,1.40
2018-05-01T15:10:48.152Z,2.28
2018-05-01T15:13:21.913Z,1.45
2018-05-01T15:15:55.708Z,1.90
2018-05-01T15:18:29.516Z,1.87
2018-05-01T15:21:03.305Z,1.60
2018-05-01T15:23:37.139Z,1.62
2018-05-01T15:26:11.676Z,1.42
2018-05-01T15:28:46.328Z,1.20
2018-05-01T15:31:20.221Z,1.30
2018-05-01T15:33:54.042Z,1.65
2018-05-01T15:36:27.681Z,1.85
2018-05-01T15:39:02.073Z,1.37
2018-05-01T15:41:35.746Z,1.40
2018-05-01T15:44:10.380Z,1.27
2018-05-01T15:46:44.129Z,1.23
2018-05-01T15:49:17.766Z,1.67
2018-05-01T15:51:52.152Z,1.35
2018-05-01T15:54:25.978Z,1.45
2018-05-01T15:57:00.349Z,1.60
2018-05-01T15:59:34.845Z,1.55
2018-05-01T16:02:09.393Z,1.40
2018-05-01T16:04:43.995Z,1.50
2018-05-01T16:07:17.755Z,1.30
2018-05-01T16:09:51.573Z,2.42
2018-05-01T16:12:25.285Z,1.58
2018-05-01T16:14:59.056Z,1.10
2018-05-01T16:17:32.925Z,1.30
2018-05-01T16:20:06.827Z,1.30
2018-05-01T16:22:40.583Z,1.60
2018-05-01T16:25:14.401Z,1.20
2018-05-01T16:27:48.053Z,1.50
2018-05-01T16:30:21.876Z,1.52
2018-05-01T16:32:55.513Z,1.30
2018-05-01T16:35:30.137Z,1.50
2018-05-01T16:38:04.719Z,1.33
2018-05-01T16:40:38.524Z,2.25
2018-05-01T16:43:12.374Z,1.20
2018-05-01T16:45:46.043Z,1.80
2018-05-01T16:48:20.669Z,1.75
2018-05-01T16:50:54.472Z,2.30
2018-05-01T16:53:28.209Z,1.48
2018-05-01T16:56:02.028Z,1.35
2018-05-01T16:58:36.584Z,1.33
2018-05-01T17:01:10.338Z,1.30
2018-05-01T17:03:44.139Z,1.65
2018-05-01T17:06:18.575Z,1.42
2018-05-01T17:08:52.353Z,2.00
2018-05-01T17:11:26.164Z,1.85
2018-05-01T17:13:59.970Z,1.60
2018-05-01T17:16:33.620Z,1.40
2018-05-01T17:19:07.568Z,1.80
2018-05-01T17:21:41.959Z,1.55
2018-05-01T17:24:15.679Z,1.87
2018-05-01T17:26:49.601Z,1.70
2018-05-01T17:29:23.442Z,1.85
2018-05-01T17:31:57.244Z,1.60
2018-05-01T17:34:31.033Z,1.52
2018-05-01T17:37:05.636Z,1.37
2018-05-01T17:39:39.462Z,1.45
2018-05-01T17:42:13.288Z,2.40
2018-05-01T17:44:47.037Z,1.15
2018-05-01T17:47:20.744Z,1.40
2018-05-01T17:49:55.263Z,1.65
2018-05-01T17:52:29.152Z,1.80
2018-05-01T17:55:02.840Z,1.70
2018-05-01T17:57:37.532Z,1.50
2018-05-01T18:00:11.322Z,1.95
2018-05-01T18:02:45.232Z,2.10
2018-05-01T18:05:18.945Z,1.40
2018-05-01T18:07:54.098Z,1.17
2018-05-01T18:10:27.848Z,1.37
2018-05-01T18:13:01.709Z,1.83
2018-05-01T18:15:36.394Z,1.45
2018-05-01T18:18:10.018Z,1.40
2018-05-01T18:20:43.976Z,2.00
2018-05-01T18:23:17.818Z,1.50
2018-05-01T18:25:51.649Z,2.55
2018-05-01T18:28:26.293Z,1.70
2018-05-01T18:31:00.083Z,2.40
2018-05-01T18:33:33.790Z,2.22
2018-05-01T18:36:07.556Z,2.40
2018-05-01T18:38:41.411Z,2.50
2018-05-01T18:41:15.228Z,2.30
2018-05-01T18:43:49.062Z,2.08
2018-05-01T18:46:22.847Z,3.03
2018-05-01T18:48:56.663Z,2.72
2018-05-01T18:51:30.587Z,1.83
2018-05-01T18:54:04.402Z,2.30
2018-05-01T18:56:38.278Z,2.50
2018-05-01T18:59:12.878Z,2.03
2018-05-01T19:01:46.609Z,2.28
2018-05-01T19:04:21.218Z,5.25
2018-05-01T19:06:54.864Z,2.08
2018-05-01T19:09:28.693Z,1.87
2018-05-01T19:12:02.403Z,2.47
2018-05-01T19:14:36.144Z,2.20
2018-05-01T19:17:09.909Z,2.10
2018-05-01T19:19:43.776Z,2.92
2018-05-01T19:22:18.341Z,2.70
2018-05-01T19:24:53.006Z,2.15
2018-05-01T19:27:26.794Z,3.12
2018-05-01T19:30:01.399Z,2.80
2018-05-01T19:32:35.173Z,2.58
2018-05-01T19:35:08.951Z,2.12
2018-05-01T19:37:42.735Z,2.60
2018-05-01T19:40:16.603Z,2.97
2018-05-01T19:42:50.333Z,2.55
2018-05-01T19:45:24.851Z,3.33
2018-05-01T19:47:59.520Z,2.67
2018-05-01T19:50:33.323Z,3.30
2018-05-01T19:53:07.138Z,3.00
2018-05-01T19:55:40.905Z,2.30
2018-05-01T19:58:14.771Z,2.75
2018-05-01T20:00:48.607Z,2.58
2018-05-01T20:03:23.295Z,2.90
2018-05-01T20:05:59.500Z,2.97
2018-05-01T20:08:33.173Z,3.15
2018-05-01T20:11:07.036Z,2.70
2018-05-01T20:13:41.617Z,2.70
2018-05-01T20:16:16.155Z,3.10
2018-05-01T20:18:49.859Z,3.20
2018-05-01T20:21:23.715Z,4.53
2018-05-01T20:23:57.540Z,4.20
2018-05-01T20:26:31.268Z,3.90
2018-05-01T20:29:05.092Z,4.85
2018-05-01T20:31:38.901Z,4.15
2018-05-01T20:34:12.690Z,4.30
2018-05-01T20:36:46.400Z,3.83
2018-05-01T20:39:20.257Z,4.03
2018-05-01T20:41:54.816Z,4.45
2018-05-01T20:44:28.625Z,4.85
2018-05-01T20:47:02.475Z,4.37
2018-05-01T20:49:36.307Z,5.18
2018-05-01T20:52:10.142Z,3.92
2018-05-01T20:54:43.882Z,4.07
2018-05-01T20:57:17.603Z,3.92
2018-05-01T20:59:51.394Z,4.10
2018-05-01T21:02:25.096Z,4.85
2018-05-01T21:04:58.907Z,5.18
2018-05-01T21:07:32.721Z,4.75
2018-05-01T21:10:06.517Z,5.40
2018-05-01T21:12:40.190Z,4.32
2018-05-01T21:15:14.041Z,4.45
2018-05-01T21:17:48.621Z,4.03
2018-05-01T21:20:23.153Z,4.78
2018-05-01T21:22:57.773Z,9.02
2018-05-01T21:25:32.427Z,9.48
2018-05-01T21:28:07.012Z,7.10
2018-05-01T21:30:40.737Z,7.18
2018-05-01T21:33:14.631Z,6.57
2018-05-01T21:35:48.369Z,4.50
2018-05-01T21:38:22.948Z,4.57
2018-05-01T21:40:57.508Z,4.50
2018-05-01T21:43:31.236Z,4.50
2018-05-01T21:46:05.024Z,5.45
2018-05-01T21:48:38.862Z,5.68
2018-05-01T21:51:12.701Z,4.68
2018-05-01T21:53:47.240Z,4.85
2018-05-01T21:56:21.783Z,4.03
2018-05-01T21:58:56.266Z,6.53
2018-05-01T22:01:30.800Z,5.87
2018-05-01T22:04:04.571Z,4.60
2018-05-01T22:06:38.336Z,3.75
2018-05-01T22:09:12.966Z,3.42
2018-05-01T22:11:46.655Z,4.60
2018-05-01T22:14:21.112Z,4.10
2018-05-01T22:16:54.901Z,4.85
2018-05-01T22:19:29.499Z,4.00
2018-05-01T22:22:03.196Z,4.15
2018-05-01T22:24:37.011Z,4.10
2018-05-01T22:27:10.716Z,3.33
2018-05-01T22:29:44.526Z,3.92
2018-05-01T22:32:18.209Z,4.40
2018-05-01T22:34:51.929Z,3.60
2018-05-01T22:37:25.639Z,3.22
2018-05-01T22:39:59.515Z,3.62
2018-05-01T22:42:34.111Z,4.70
2018-05-01T22:45:07.859Z,3.80
2018-05-01T22:47:41.617Z,3.85
2018-05-01T22:50:15.388Z,3.53
2018-05-01T22:52:49.196Z,3.80
2018-05-01T22:55:23.784Z,4.03
2018-05-01T22:57:58.240Z,3.33
2018-05-01T23:00:32.031Z,3.30
2018-05-01T23:03:05.678Z,3.40
2018-05-01T23:05:39.438Z,4.05
2018-05-01T23:08:13.193Z,3.05
2018-05-01T23:10:47.543Z,3.55
2018-05-01T23:13:22.097Z,3.40
2018-05-01T23:15:55.936Z,3.75
2018-05-01T23:18:29.680Z,3.20
2018-05-01T23:21:03.417Z,3.15
2018-05-01T23:23:37.196Z,3.62
2018-05-01T23:26:11.616Z,3.50
2018-05-01T23:28:45.495Z,4.32
2018-05-01T23:31:19.256Z,3.85
2018-05-01T23:33:52.879Z,3.80
2018-05-01T23:36:26.769Z,3.78
2018-05-01T23:39:00.351Z,4.10
2018-05-01T23:41:34.027Z,3.97
2018-05-01T23:44:07.625Z,4.30
2018-05-01T23:46:41.442Z,4.80
2018-05-01T23:49:15.212Z,4.43
2018-05-01T23:51:49.696Z,4.80
2018-05-01T23:54:24.299Z,4.15
2018-05-01T23:56:58.064Z,3.87
2018-05-01T23:59:31.755Z,4.00
